createdAt,value
2018-10-01T00:00:09.484Z,4.70
2018-10-01T00:01:09.435Z,5.10
2018-10-01T00:02:09.374Z,5.00
2018-10-01T00:03:09.332Z,4.70
2018-10-01T00:04:09.303Z,5.10
2018-10-01T00:05:09.230Z,5.00
2018-10-01T00:06:09.175Z,5.10
2018-10-01T00:07:09.125Z,5.40
2018-10-01T00:08:09.070Z,4.90
2018-10-01T00:09:09.045Z,5.10
2018-10-01T00:10:08.963Z,5.50
2018-10-01T00:11:08.923Z,5.50
2018-10-01T00:12:08.868Z,5.50
2018-10-01T00:13:08.804Z,5.10
2018-10-01T00:14:08.783Z,5.30
2018-10-01T00:15:08.727Z,5.20
2018-10-01T00:16:08.652Z,5.20
2018-10-01T00:17:08.605Z,5.00
2018-10-01T00:18:08.573Z,5.30
2018-10-01T00:19:08.521Z,5.40
2018-10-01T00:20:08.453Z,5.10
2018-10-01T00:21:08.398Z,5.50
2018-10-01T00:22:08.341Z,5.10
2018-10-01T00:23:08.295Z,5.20
2018-10-01T00:24:08.265Z,5.50
2018-10-01T00:25:08.182Z,4.80
2018-10-01T00:26:08.131Z,5.00
2018-10-01T00:27:08.081Z,5.30
2018-10-01T00:28:08.034Z,5.30
2018-10-01T00:29:08.003Z,5.20
2018-10-01T00:30:07.921Z,5.20
2018-10-01T00:31:07.878Z,5.40
2018-10-01T00:32:07.820Z,5.10
2018-10-01T00:33:07.771Z,5.20
2018-10-01T00:34:07.757Z,5.50
2018-10-01T00:35:07.671Z,5.50
2018-10-01T00:36:07.609Z,5.40
2018-10-01T00:37:07.559Z,5.00
2018-10-01T00:38:07.511Z,5.20
2018-10-01T00:39:07.484Z,5.00
2018-10-01T00:40:07.405Z,5.00
2018-10-01T00:41:07.352Z,5.20
2018-10-01T00:42:07.302Z,5.30
2018-10-01T00:43:07.278Z,5.50
2018-10-01T00:44:07.218Z,5.40
2018-10-01T00:45:07.150Z,5.10
2018-10-01T00:46:07.105Z,5.40
2018-10-01T00:47:07.042Z,5.70
2018-10-01T00:48:06.986Z,5.40
2018-10-01T00:49:06.958Z,5.30
2018-10-01T00:50:06.888Z,5.20
2018-10-01T00:51:06.829Z,5.50
2018-10-01T00:52:06.796Z,5.40
2018-10-01T00:53:06.732Z,5.40
2018-10-01T00:54:06.698Z,5.20
2018-10-01T00:55:06.632Z,5.20
2018-10-01T00:56:06.571Z,5.30
2018-10-01T00:57:06.523Z,5.90
2018-10-01T00:58:06.473Z,5.10
2018-10-01T00:59:06.454Z,5.40
2018-10-01T01:00:06.372Z,5.50
2018-10-01T01:01:06.323Z,5.60
2018-10-01T01:02:06.266Z,5.50
2018-10-01T01:03:06.222Z,5.70
2018-10-01T01:04:06.182Z,5.30
2018-10-01T01:05:06.135Z,5.30
2018-10-01T01:06:06.064Z,5.30
2018-10-01T01:07:06.007Z,5.20
2018-10-01T01:08:05.952Z,5.70
2018-10-01T01:09:05.912Z,5.50
2018-10-01T01:10:05.875Z,5.30
2018-10-01T01:11:05.791Z,5.60
2018-10-01T01:12:05.740Z,5.50
2018-10-01T01:13:05.691Z,5.40
2018-10-01T01:14:05.666Z,5.10
2018-10-01T01:15:05.623Z,5.50
2018-10-01T01:16:05.545Z,5.50
2018-10-01T01:17:05.489Z,5.30
2018-10-01T01:18:05.440Z,5.60
2018-10-01T01:19:05.384Z,6.00
2018-10-01T01:20:05.357Z,5.50
2018-10-01T01:21:05.278Z,5.50
2018-10-01T01:22:05.233Z,5.40
2018-10-01T01:23:05.177Z,5.30
2018-10-01T01:24:05.130Z,5.20
2018-10-01T01:25:05.095Z,5.00
2018-10-01T01:26:05.025Z,5.20
2018-10-01T01:27:04.961Z,5.30
2018-10-01T01:28:04.917Z,5.20
2018-10-01T01:29:04.870Z,5.30
2018-10-01T01:30:04.838Z,5.50
2018-10-01T01:31:04.771Z,5.30
2018-10-01T01:32:04.712Z,5.20
2018-10-01T01:33:04.660Z,5.10
2018-10-01T01:34:04.608Z,5.30
2018-10-01T01:35:04.592Z,5.20
2018-10-01T01:36:04.504Z,5.10
2018-10-01T01:37:04.456Z,5.30
2018-10-01T01:38:04.399Z,4.90
2018-10-01T01:39:04.342Z,5.10
2018-10-01T01:40:04.332Z,5.40
2018-10-01T01:41:04.243Z,5.50
2018-10-01T01:42:04.190Z,5.70
2018-10-01T01:43:04.146Z,5.40
2018-10-01T01:44:04.099Z,5.30
2018-10-01T01:45:04.063Z,5.60
2018-10-01T01:46:03.986Z,5.20
2018-10-01T01:47:03.937Z,5.40
2018-10-01T01:48:03.878Z,5.60
2018-10-01T01:49:03.845Z,5.10
2018-10-01T01:50:03.804Z,5.10
2018-10-01T01:51:03.731Z,5.00
2018-10-01T01:52:03.677Z,5.30
2018-10-01T01:53:03.649Z,5.40
2018-10-01T01:54:03.572Z,5.30
2018-10-01T01:55:03.557Z,5.30
2018-10-01T01:56:03.472Z,5.00
2018-10-01T01:57:03.424Z,5.40
2018-10-01T01:58:03.361Z,5.10
2018-10-01T01:59:03.313Z,5.20
2018-10-01T02:00:03.289Z,5.30
2018-10-01T02:01:03.224Z,5.10
2018-10-01T02:02:03.154Z,5.50
2018-10-01T02:03:03.100Z,5.50
2018-10-01T02:04:03.058Z,5.30
2018-10-01T02:05:03.028Z,4.80
2018-10-01T02:06:02.949Z,5.40
2018-10-01T02:07:02.898Z,5.70
2018-10-01T02:08:02.847Z,5.10
2018-10-01T02:09:02.795Z,5.20
2018-10-01T02:10:02.782Z,5.50
2018-10-01T02:11:02.698Z,5.50
2018-10-01T02:12:02.642Z,5.50
2018-10-01T02:13:02.585Z,5.30
2018-10-01T02:14:02.535Z,5.40
2018-10-01T02:15:02.503Z,5.40
2018-10-01T02:16:02.440Z,5.80
2018-10-01T02:17:02.377Z,5.90
2018-10-01T02:18:02.330Z,5.30
2018-10-01T02:19:02.281Z,5.90
2018-10-01T02:20:02.249Z,5.80
2018-10-01T02:21:02.177Z,6.00
2018-10-01T02:22:02.120Z,5.50
2018-10-01T02:23:02.073Z,5.80
2018-10-01T02:24:02.031Z,5.80
2018-10-01T02:25:02.037Z,5.60
2018-10-01T02:26:01.918Z,5.30
2018-10-01T02:27:01.866Z,5.70
2018-10-01T02:28:01.808Z,5.50
2018-10-01T02:29:01.761Z,5.70
2018-10-01T02:30:01.731Z,5.70
2018-10-01T02:31:01.680Z,5.60
2018-10-01T02:32:01.600Z,5.40
2018-10-01T02:33:01.554Z,5.60
2018-10-01T02:34:01.505Z,5.60
2018-10-01T02:35:01.457Z,5.50
2018-10-01T02:36:01.438Z,5.90
2018-10-01T02:37:01.354Z,5.30
2018-10-01T02:38:01.299Z,5.80
2018-10-01T02:39:01.243Z,5.50
2018-10-01T02:40:01.205Z,5.40
2018-10-01T02:41:01.175Z,6.00
2018-10-01T02:42:01.098Z,5.80
2018-10-01T02:43:01.065Z,5.80
2018-10-01T02:44:00.979Z,5.70
2018-10-01T02:45:00.952Z,6.00
2018-10-01T02:46:00.920Z,5.70
2018-10-01T02:47:00.824Z,5.70
2018-10-01T02:48:00.778Z,5.30
2018-10-01T02:49:00.741Z,5.30
2018-10-01T02:50:00.679Z,5.40
2018-10-01T02:51:00.641Z,5.70
2018-10-01T02:52:00.570Z,6.10
2018-10-01T02:53:00.517Z,5.70
2018-10-01T02:54:00.462Z,5.90
2018-10-01T02:55:00.413Z,5.60
2018-10-01T02:56:00.384Z,5.50
2018-10-01T02:57:00.315Z,5.60
2018-10-01T02:58:00.265Z,5.20
2018-10-01T02:59:00.211Z,5.60
2018-10-01T03:00:00.167Z,5.90
2018-10-01T03:01:00.132Z,5.50
2018-10-01T03:02:00.054Z,5.80
2018-10-01T03:03:00.023Z,5.80
2018-10-01T03:03:59.952Z,5.50
2018-10-01T03:04:59.903Z,5.40
2018-10-01T03:05:59.903Z,6.00
2018-10-01T03:06:59.797Z,5.50
2018-10-01T03:07:59.746Z,6.10
2018-10-01T03:08:59.693Z,5.50
2018-10-01T03:09:59.637Z,5.80
2018-10-01T03:10:59.605Z,5.80
2018-10-01T03:11:59.537Z,5.40
2018-10-01T03:12:59.492Z,5.70
2018-10-01T03:13:59.433Z,5.60
2018-10-01T03:14:59.376Z,5.50
2018-10-01T03:15:59.353Z,5.40
2018-10-01T03:16:59.282Z,5.40
2018-10-01T03:17:59.236Z,5.40
2018-10-01T03:18:59.180Z,5.50
2018-10-01T03:19:59.137Z,5.70
2018-10-01T03:20:59.101Z,5.70
2018-10-01T03:21:59.016Z,5.40
2018-10-01T03:22:58.963Z,6.10
2018-10-01T03:23:58.917Z,5.80
2018-10-01T03:24:58.870Z,5.20
2018-10-01T03:25:58.832Z,5.60
2018-10-01T03:26:58.766Z,5.50
2018-10-01T03:27:58.706Z,5.40
2018-10-01T03:28:58.659Z,5.30
2018-10-01T03:29:58.615Z,5.50
2018-10-01T03:30:58.595Z,5.80
2018-10-01T03:31:58.513Z,6.10
2018-10-01T03:32:58.459Z,5.80
2018-10-01T03:33:58.396Z,5.70
2018-10-01T03:34:58.339Z,6.00
2018-10-01T03:35:58.318Z,5.50
2018-10-01T03:36:58.247Z,5.90
2018-10-01T03:37:58.192Z,6.10
2018-10-01T03:38:58.146Z,5.90
2018-10-01T03:39:58.149Z,6.10
2018-10-01T03:40:58.073Z,6.00
2018-10-01T03:41:58.012Z,5.80
2018-10-01T03:42:57.940Z,6.20
2018-10-01T03:43:57.881Z,5.90
2018-10-01T03:44:57.831Z,6.30
2018-10-01T03:45:57.774Z,6.20
2018-10-01T03:46:57.748Z,6.20
2018-10-01T03:47:57.671Z,5.80
2018-10-01T03:48:57.622Z,5.80
2018-10-01T03:49:57.567Z,5.90
2018-10-01T03:50:57.515Z,5.80
2018-10-01T03:51:57.493Z,5.80
2018-10-01T03:52:57.417Z,5.90
2018-10-01T03:53:57.363Z,5.90
2018-10-01T03:54:57.344Z,6.30
2018-10-01T03:55:57.258Z,5.70
2018-10-01T03:56:57.230Z,6.00
2018-10-01T03:57:57.166Z,6.20
2018-10-01T03:58:57.117Z,6.30
2018-10-01T03:59:57.048Z,6.00
2018-10-01T04:00:57.007Z,6.50
2018-10-01T04:01:56.985Z,6.50
2018-10-01T04:02:56.944Z,6.40
2018-10-01T04:03:56.840Z,6.20
2018-10-01T04:04:56.793Z,6.70
2018-10-01T04:05:56.752Z,6.30
2018-10-01T04:06:56.736Z,6.70
2018-10-01T04:07:56.639Z,6.40
2018-10-01T04:08:56.626Z,6.40
2018-10-01T04:09:56.530Z,6.70
2018-10-01T04:10:56.483Z,6.20
2018-10-01T04:11:56.469Z,6.30
2018-10-01T04:12:56.374Z,5.80
2018-10-01T04:13:56.314Z,6.10
2018-10-01T04:14:56.268Z,6.30
2018-10-01T04:15:56.211Z,6.40
2018-10-01T04:16:56.189Z,6.10
2018-10-01T04:17:56.120Z,6.40
2018-10-01T04:18:56.063Z,6.30
2018-10-01T04:19:56.022Z,6.40
2018-10-01T04:20:55.956Z,6.40
2018-10-01T04:21:55.930Z,6.30
2018-10-01T04:22:55.934Z,6.60
2018-10-01T04:23:55.797Z,6.30
2018-10-01T04:24:55.748Z,6.20
2018-10-01T04:25:55.691Z,6.20
2018-10-01T04:26:55.667Z,6.20
2018-10-01T04:27:55.607Z,6.60
2018-10-01T04:28:55.538Z,6.60
2018-10-01T04:29:55.510Z,6.00
2018-10-01T04:30:55.436Z,5.80
2018-10-01T04:31:55.400Z,5.60
2018-10-01T04:32:55.329Z,5.70
2018-10-01T04:33:55.281Z,5.30
2018-10-01T04:34:55.230Z,5.50
2018-10-01T04:35:55.169Z,6.00
2018-10-01T04:36:55.141Z,6.10
2018-10-01T04:37:55.078Z,5.80
2018-10-01T04:38:55.011Z,6.50
2018-10-01T04:39:54.965Z,6.00
2018-10-01T04:40:54.908Z,6.00
2018-10-01T04:41:54.883Z,6.10
2018-10-01T04:42:54.824Z,6.10
2018-10-01T04:43:54.766Z,6.10
2018-10-01T04:44:54.697Z,6.20
2018-10-01T04:45:54.643Z,6.10
2018-10-01T04:46:54.708Z,6.40
2018-10-01T04:47:54.543Z,6.50
2018-10-01T04:48:54.500Z,6.70
2018-10-01T04:49:54.441Z,6.70
2018-10-01T04:50:54.392Z,6.90
2018-10-01T04:51:54.355Z,6.60
2018-10-01T04:52:54.282Z,6.60
2018-10-01T04:53:54.224Z,6.50
2018-10-01T04:54:54.180Z,7.10
2018-10-01T04:55:54.121Z,6.50
2018-10-01T04:56:54.092Z,6.10
2018-10-01T04:57:54.016Z,6.20
2018-10-01T04:58:53.965Z,6.20
2018-10-01T04:59:53.909Z,6.20
2018-10-01T05:00:53.856Z,6.50
2018-10-01T05:01:53.825Z,5.80
2018-10-01T05:02:53.749Z,6.00
2018-10-01T05:03:53.699Z,6.30
2018-10-01T05:04:53.653Z,6.70
2018-10-01T05:05:53.605Z,6.40
2018-10-01T05:06:53.539Z,6.10
2018-10-01T05:07:53.515Z,6.40
2018-10-01T05:08:53.457Z,5.80
2018-10-01T05:09:53.377Z,5.70
2018-10-01T05:10:53.328Z,5.60
2018-10-01T05:11:53.282Z,5.30
2018-10-01T05:12:53.250Z,5.40
2018-10-01T05:13:53.174Z,5.10
2018-10-01T05:14:53.167Z,5.80
2018-10-01T05:15:53.067Z,5.80
2018-10-01T05:16:53.011Z,5.80
2018-10-01T05:17:52.983Z,5.90
2018-10-01T05:18:52.912Z,6.00
2018-10-01T05:19:52.855Z,6.20
2018-10-01T05:20:52.816Z,6.40
2018-10-01T05:21:52.750Z,6.00
2018-10-01T05:22:52.719Z,6.10
2018-10-01T05:23:52.653Z,6.10
2018-10-01T05:24:52.590Z,6.20
2018-10-01T05:25:52.555Z,6.20
2018-10-01T05:26:52.489Z,5.80
2018-10-01T05:27:52.461Z,5.70
2018-10-01T05:28:53.903Z,5.80
2018-10-01T05:29:52.326Z,6.00
2018-10-01T05:30:52.276Z,5.70
2018-10-01T05:31:52.221Z,5.90
2018-10-01T05:32:52.196Z,5.50
2018-10-01T05:33:52.140Z,5.30
2018-10-01T05:34:52.066Z,5.80
2018-10-01T05:35:52.014Z,5.70
2018-10-01T05:36:51.958Z,5.80
2018-10-01T05:37:52.401Z,5.60
2018-10-01T05:38:51.860Z,5.60
2018-10-01T05:39:51.808Z,5.60
2018-10-01T05:40:51.752Z,5.50
2018-10-01T05:41:51.694Z,5.40
2018-10-01T05:42:51.676Z,5.40
2018-10-01T05:43:51.621Z,5.50
2018-10-01T05:44:51.564Z,5.40
2018-10-01T05:45:51.495Z,5.20
2018-10-01T05:46:51.452Z,5.50
2018-10-01T05:47:51.420Z,5.50
2018-10-01T05:48:51.346Z,5.60
2018-10-01T05:49:51.356Z,5.40
2018-10-01T05:50:51.345Z,5.30
2018-10-01T05:51:51.297Z,5.20
2018-10-01T05:52:51.222Z,5.60
2018-10-01T05:53:51.097Z,5.30
2018-10-01T05:54:51.083Z,5.40
2018-10-01T05:55:50.965Z,6.00
2018-10-01T05:56:51.033Z,5.20
2018-10-01T05:57:51.093Z,5.50
2018-10-01T05:58:50.827Z,5.60
2018-10-01T05:59:50.935Z,5.90
2018-10-01T06:00:50.703Z,5.50
2018-10-01T06:01:50.676Z,5.00
2018-10-01T06:02:50.620Z,5.00
2018-10-01T06:03:50.539Z,5.00
2018-10-01T06:04:50.570Z,5.20
2018-10-01T06:05:50.431Z,5.40
2018-10-01T06:06:50.394Z,5.20
2018-10-01T06:07:50.364Z,4.90
2018-10-01T06:08:50.273Z,4.90
2018-10-01T06:09:50.218Z,5.00
2018-10-01T06:10:50.173Z,4.40
2018-10-01T06:11:50.176Z,4.60
2018-10-01T06:12:50.093Z,5.00
2018-10-01T06:13:50.007Z,4.60
2018-10-01T06:14:49.961Z,4.70
2018-10-01T06:15:49.907Z,4.70
2018-10-01T06:16:49.857Z,4.50
2018-10-01T06:17:49.848Z,5.10
2018-10-01T06:18:49.757Z,4.80
2018-10-01T06:19:49.699Z,4.50
2018-10-01T06:20:49.647Z,4.30
2018-10-01T06:21:49.597Z,4.50
2018-10-01T06:22:49.561Z,4.40
2018-10-01T06:23:49.486Z,4.40
2018-10-01T06:24:49.430Z,4.10
2018-10-01T06:25:49.384Z,4.30
2018-10-01T06:26:49.337Z,4.20
2018-10-01T06:27:49.304Z,4.30
2018-10-01T06:28:49.227Z,3.90
2018-10-01T06:29:49.174Z,3.80
2018-10-01T06:30:49.115Z,3.90
2018-10-01T06:31:49.063Z,3.40
2018-10-01T06:32:49.050Z,4.20
2018-10-01T06:33:48.956Z,4.10
2018-10-01T06:34:48.913Z,3.60
2018-10-01T06:35:48.857Z,4.00
2018-10-01T06:36:48.804Z,3.80
2018-10-01T06:37:48.745Z,3.50
2018-10-01T06:38:48.714Z,3.50
2018-10-01T06:39:48.649Z,3.50
2018-10-01T06:40:48.590Z,3.70
2018-10-01T06:41:48.578Z,3.70
2018-10-01T06:42:48.492Z,3.70
2018-10-01T06:43:48.463Z,3.30
2018-10-01T06:44:48.380Z,3.60
2018-10-01T06:45:48.329Z,3.30
2018-10-01T06:46:48.282Z,3.00
2018-10-01T06:47:48.221Z,3.10
2018-10-01T06:48:48.196Z,3.20
2018-10-01T06:49:48.119Z,3.20
2018-10-01T06:50:48.093Z,3.10
2018-10-01T06:51:48.020Z,3.00
2018-10-01T06:52:47.962Z,3.10
2018-10-01T06:53:47.955Z,2.80
2018-10-01T06:54:47.856Z,3.10
2018-10-01T06:55:47.808Z,2.90
2018-10-01T06:56:47.756Z,3.50
2018-10-01T06:57:47.696Z,3.30
2018-10-01T06:58:47.671Z,3.20
2018-10-01T06:59:47.591Z,3.10
2018-10-01T07:00:47.545Z,3.40
2018-10-01T07:01:47.490Z,2.90
2018-10-01T07:02:47.444Z,2.90
2018-10-01T07:03:47.417Z,2.90
2018-10-01T07:04:47.343Z,2.90
2018-10-01T07:05:47.447Z,2.80
2018-10-01T07:06:47.233Z,3.50
2018-10-01T07:07:47.183Z,3.00
2018-10-01T07:08:47.149Z,3.00
2018-10-01T07:09:47.071Z,2.90
2018-10-01T07:10:47.020Z,3.00
2018-10-01T07:11:47.034Z,2.80
2018-10-01T07:12:46.915Z,2.80
2018-10-01T07:13:46.893Z,2.60
2018-10-01T07:14:46.827Z,3.00
2018-10-01T07:15:46.760Z,2.70
2018-10-01T07:16:46.764Z,2.60
2018-10-01T07:17:46.698Z,2.60
2018-10-01T07:18:46.627Z,2.50
2018-10-01T07:19:46.614Z,2.60
2018-10-01T07:20:46.496Z,2.90
2018-10-01T07:21:46.462Z,3.00
2018-10-01T07:22:46.409Z,2.50
2018-10-01T07:23:46.375Z,2.50
2018-10-01T07:24:46.290Z,2.80
2018-10-01T07:25:46.253Z,2.90
2018-10-01T07:26:46.193Z,2.80
2018-10-01T07:27:46.133Z,2.50
2018-10-01T07:28:46.082Z,2.60
2018-10-01T07:29:46.072Z,2.80
2018-10-01T07:30:46.076Z,3.00
2018-10-01T07:31:45.927Z,2.40
2018-10-01T07:32:45.913Z,2.40
2018-10-01T07:33:45.820Z,2.90
2018-10-01T07:34:45.798Z,2.70
2018-10-01T07:35:45.724Z,2.60
2018-10-01T07:36:45.666Z,2.70
2018-10-01T07:37:45.617Z,2.30
2018-10-01T07:38:45.624Z,2.50
2018-10-01T07:39:45.542Z,2.40
2018-10-01T07:40:45.470Z,2.40
2018-10-01T07:41:45.430Z,3.40
2018-10-01T07:42:45.353Z,2.60
2018-10-01T07:43:45.308Z,2.50
2018-10-01T07:44:45.349Z,2.60
2018-10-01T07:45:45.209Z,2.30
2018-10-01T07:46:45.157Z,2.50
2018-10-01T07:47:45.120Z,2.20
2018-10-01T07:48:45.051Z,2.30
2018-10-01T07:49:45.041Z,2.50
2018-10-01T07:50:44.963Z,2.70
2018-10-01T07:51:44.892Z,2.50
2018-10-01T07:52:44.836Z,2.50
2018-10-01T07:53:44.788Z,2.30
2018-10-01T07:54:44.762Z,2.20
2018-10-01T07:55:44.689Z,2.50
2018-10-01T07:56:44.628Z,2.30
2018-10-01T07:57:44.580Z,2.30
2018-10-01T07:58:44.529Z,2.10
2018-10-01T07:59:44.560Z,2.60
2018-10-01T08:00:44.429Z,2.40
2018-10-01T08:01:44.378Z,2.10
2018-10-01T08:02:44.321Z,2.30
2018-10-01T08:03:44.272Z,1.90
2018-10-01T08:04:44.245Z,2.10
2018-10-01T08:05:44.171Z,2.60
2018-10-01T08:06:44.154Z,2.00
2018-10-01T08:07:44.064Z,2.00
2018-10-01T08:08:44.192Z,2.10
2018-10-01T08:09:43.984Z,2.00
2018-10-01T08:10:43.940Z,2.10
2018-10-01T08:11:43.857Z,1.90
2018-10-01T08:12:43.813Z,2.20
2018-10-01T08:13:43.796Z,1.80
2018-10-01T08:14:43.708Z,1.90
2018-10-01T08:15:43.702Z,1.60
2018-10-01T08:16:43.645Z,1.80
2018-10-01T08:17:43.562Z,1.70
2018-10-01T08:18:43.510Z,2.10
2018-10-01T08:19:43.456Z,1.90
2018-10-01T08:20:43.426Z,1.80
2018-10-01T08:21:43.351Z,2.00
2018-10-01T08:22:43.301Z,1.90
2018-10-01T08:23:43.358Z,1.90
2018-10-01T08:24:43.193Z,2.00
2018-10-01T08:25:43.171Z,2.00
2018-10-01T08:26:43.227Z,2.40
2018-10-01T08:27:43.044Z,2.00
2018-10-01T08:28:42.996Z,2.00
2018-10-01T08:29:43.094Z,2.00
2018-10-01T08:30:42.915Z,2.20
2018-10-01T08:31:42.835Z,2.10
2018-10-01T08:32:42.791Z,1.60
2018-10-01T08:33:42.735Z,1.60
2018-10-01T08:34:42.685Z,2.00
2018-10-01T08:35:42.669Z,2.10
2018-10-01T08:36:42.588Z,1.60
2018-10-01T08:37:42.544Z,1.70
2018-10-01T08:38:42.555Z,1.80
2018-10-01T08:39:42.434Z,1.80
2018-10-01T08:40:42.411Z,1.70
2018-10-01T08:41:42.331Z,2.10
2018-10-01T08:42:42.280Z,2.00
2018-10-01T08:43:42.233Z,1.80
2018-10-01T08:44:42.181Z,1.90
2018-10-01T08:45:42.161Z,1.90
2018-10-01T08:46:42.088Z,1.70
2018-10-01T08:47:42.110Z,1.70
2018-10-01T08:48:41.976Z,1.90
2018-10-01T08:49:41.928Z,1.60
2018-10-01T08:50:41.896Z,2.00
2018-10-01T08:51:41.916Z,1.90
2018-10-01T08:52:41.780Z,1.70
2018-10-01T08:53:41.723Z,1.50
2018-10-01T08:54:41.676Z,1.90
2018-10-01T08:55:41.651Z,1.70
2018-10-01T08:56:41.571Z,1.70
2018-10-01T08:57:41.521Z,1.60
2018-10-01T08:58:41.476Z,1.60
2018-10-01T08:59:41.423Z,1.70
2018-10-01T09:00:41.400Z,1.80
2018-10-01T09:01:41.331Z,1.80
2018-10-01T09:02:41.282Z,1.60
2018-10-01T09:03:41.220Z,1.50
2018-10-01T09:04:41.172Z,1.60
2018-10-01T09:05:41.146Z,1.40
2018-10-01T09:06:41.084Z,1.80
2018-10-01T09:07:41.025Z,1.90
2018-10-01T09:08:40.978Z,1.90
2018-10-01T09:09:40.916Z,1.50
2018-10-01T09:10:40.891Z,1.40
2018-10-01T09:11:40.819Z,1.90
2018-10-01T09:12:40.772Z,1.60
2018-10-01T09:13:40.721Z,1.40
2018-10-01T09:14:40.711Z,1.60
2018-10-01T09:15:40.644Z,1.50
2018-10-01T09:16:40.569Z,1.60
2018-10-01T09:17:40.520Z,1.30
2018-10-01T09:18:40.476Z,1.10
2018-10-01T09:19:40.422Z,1.30
2018-10-01T09:20:40.460Z,1.20
2018-10-01T09:21:40.340Z,1.30
2018-10-01T09:22:40.268Z,1.20
2018-10-01T09:23:40.222Z,1.10
2018-10-01T09:24:40.169Z,1.50
2018-10-01T09:25:40.141Z,1.20
2018-10-01T09:26:40.149Z,1.50
2018-10-01T09:27:40.028Z,1.50
2018-10-01T09:28:39.972Z,1.10
2018-10-01T09:29:39.954Z,1.50
2018-10-01T09:30:39.910Z,1.30
2018-10-01T09:31:39.820Z,1.70
2018-10-01T09:32:39.842Z,1.30
2018-10-01T09:33:39.715Z,1.20
2018-10-01T09:34:39.669Z,1.10
2018-10-01T09:35:39.723Z,1.40
2018-10-01T09:36:39.592Z,1.40
2018-10-01T09:37:39.517Z,1.50
2018-10-01T09:38:39.512Z,1.30
2018-10-01T09:39:39.418Z,1.30
2018-10-01T09:40:39.460Z,1.20
2018-10-01T09:41:39.345Z,1.50
2018-10-01T09:42:39.265Z,1.30
2018-10-01T09:43:39.220Z,1.50
2018-10-01T09:44:39.236Z,1.00
2018-10-01T09:45:39.119Z,1.30
2018-10-01T09:46:39.090Z,1.10
2018-10-01T09:47:39.019Z,1.20
2018-10-01T09:48:38.968Z,1.20
2018-10-01T09:49:38.915Z,1.00
2018-10-01T09:50:38.871Z,1.00
2018-10-01T09:51:38.841Z,1.10
2018-10-01T09:52:38.768Z,1.00
2018-10-01T09:53:38.729Z,1.00
2018-10-01T09:54:38.671Z,1.10
2018-10-01T09:55:38.618Z,1.20
2018-10-01T09:56:38.635Z,1.20
2018-10-01T09:57:38.520Z,1.20
2018-10-01T09:58:38.502Z,1.10
2018-10-01T09:59:38.422Z,1.30
2018-10-01T10:00:38.450Z,1.10
2018-10-01T10:01:38.399Z,1.20
2018-10-01T10:02:38.402Z,1.00
2018-10-01T10:03:38.301Z,1.10
2018-10-01T10:04:38.287Z,1.20
2018-10-01T10:05:38.209Z,1.20
2018-10-01T10:06:38.139Z,1.10
2018-10-01T10:07:38.073Z,1.00
2018-10-01T10:08:38.014Z,1.10
2018-10-01T10:09:37.985Z,1.00
2018-10-01T10:10:37.960Z,1.00
2018-10-01T10:11:37.973Z,1.20
2018-10-01T10:12:37.822Z,1.30
2018-10-01T10:13:37.784Z,1.00
2018-10-01T10:14:37.818Z,1.10
2018-10-01T10:15:37.672Z,0.90
2018-10-01T10:16:37.708Z,1.20
2018-10-01T10:17:37.565Z,1.10
2018-10-01T10:18:37.509Z,1.10
2018-10-01T10:19:37.497Z,0.90
2018-10-01T10:20:37.494Z,0.90
2018-10-01T10:21:37.447Z,1.00
2018-10-01T10:22:37.397Z,0.90
2018-10-01T10:23:37.304Z,0.90
2018-10-01T10:24:37.291Z,0.80
2018-10-01T10:25:37.183Z,0.80
2018-10-01T10:26:37.242Z,0.80
2018-10-01T10:27:37.099Z,1.00
2018-10-01T10:28:37.106Z,0.70
2018-10-01T10:29:36.976Z,0.80
2018-10-01T10:30:36.974Z,0.80
2018-10-01T10:31:36.937Z,0.80
2018-10-01T10:32:36.941Z,0.60
2018-10-01T10:33:36.805Z,0.70
2018-10-01T10:34:36.796Z,0.80
2018-10-01T10:35:36.806Z,0.80
2018-10-01T10:36:36.670Z,0.70
2018-10-01T10:37:36.634Z,0.70
2018-10-01T10:38:36.607Z,0.70
2018-10-01T10:39:36.543Z,0.80
2018-10-01T10:40:36.436Z,1.00
2018-10-01T10:41:36.486Z,1.00
2018-10-01T10:42:36.363Z,0.70
2018-10-01T10:43:36.309Z,0.90
2018-10-01T10:44:36.288Z,0.90
2018-10-01T10:45:36.179Z,0.70
2018-10-01T10:46:36.215Z,0.70
2018-10-01T10:47:36.106Z,0.80
2018-10-01T10:48:36.013Z,0.70
2018-10-01T10:49:35.947Z,0.60
2018-10-01T10:50:35.996Z,0.70
2018-10-01T10:51:35.880Z,0.80
2018-10-01T10:52:35.800Z,0.80
2018-10-01T10:53:35.752Z,0.70
2018-10-01T10:54:35.698Z,0.70
2018-10-01T10:55:35.649Z,0.70
2018-10-01T10:56:35.680Z,0.80
2018-10-01T10:57:35.544Z,0.90
2018-10-01T10:58:35.493Z,0.60
2018-10-01T10:59:35.485Z,0.80
2018-10-01T11:00:35.394Z,0.60
2018-10-01T11:01:35.390Z,0.50
2018-10-01T11:02:35.350Z,0.40
2018-10-01T11:03:35.249Z,0.40
2018-10-01T11:04:35.204Z,0.50
2018-10-01T11:05:35.142Z,0.70
2018-10-01T11:06:35.094Z,0.50
2018-10-01T11:07:35.076Z,0.50
2018-10-01T11:08:35.015Z,0.50
2018-10-01T11:09:34.949Z,0.60
2018-10-01T11:10:34.894Z,0.60
2018-10-01T11:11:34.843Z,0.60
2018-10-01T11:12:34.819Z,0.60
2018-10-01T11:13:34.746Z,0.60
2018-10-01T11:14:34.740Z,0.70
2018-10-01T11:15:34.650Z,0.70
2018-10-01T11:16:34.595Z,0.60
2018-10-01T11:17:34.566Z,0.70
2018-10-01T11:18:34.652Z,0.90
2018-10-01T11:19:34.443Z,0.70
2018-10-01T11:20:34.420Z,0.90
2018-10-01T11:21:34.429Z,0.80
2018-10-01T11:22:34.357Z,0.80
2018-10-01T11:23:34.242Z,0.70
2018-10-01T11:24:34.203Z,0.70
2018-10-01T11:25:34.213Z,0.60
2018-10-01T11:26:34.092Z,0.80
2018-10-01T11:27:34.075Z,0.70
2018-10-01T11:28:33.992Z,0.60
2018-10-01T11:29:33.955Z,0.70
2018-10-01T11:30:33.896Z,0.70
2018-10-01T11:31:33.878Z,0.80
2018-10-01T11:32:33.817Z,0.90
2018-10-01T11:33:33.834Z,0.80
2018-10-01T11:34:33.731Z,0.80
2018-10-01T11:35:33.692Z,0.80
2018-10-01T11:36:33.600Z,1.00
2018-10-01T11:37:33.575Z,1.00
2018-10-01T11:38:33.498Z,1.00
2018-10-01T11:39:33.463Z,0.80
2018-10-01T11:40:33.413Z,0.90
2018-10-01T11:41:33.350Z,0.70
2018-10-01T11:42:33.326Z,0.60
2018-10-01T11:43:33.252Z,0.60
2018-10-01T11:44:33.202Z,0.60
2018-10-01T11:45:36.577Z,0.50
2018-10-01T11:46:34.098Z,0.70
2018-10-01T11:47:33.076Z,0.90
2018-10-01T11:48:33.003Z,0.80
2018-10-01T11:49:32.957Z,0.90
2018-10-01T11:50:32.928Z,0.80
2018-10-01T11:51:32.883Z,0.90
2018-10-01T11:52:32.830Z,0.70
2018-10-01T11:53:32.756Z,0.60
2018-10-01T11:54:32.704Z,0.70
2018-10-01T11:55:32.655Z,0.70
2018-10-01T11:56:32.602Z,0.70
2018-10-01T11:57:32.591Z,0.60
2018-10-01T11:58:32.502Z,0.30
2018-10-01T11:59:32.453Z,0.30
2018-10-01T12:00:32.404Z,0.40
2018-10-01T12:01:32.347Z,0.30
2018-10-01T12:02:32.321Z,0.50
2018-10-01T12:03:32.299Z,0.40
2018-10-01T12:04:32.194Z,0.30
2018-10-01T12:05:32.142Z,0.40
2018-10-01T12:06:32.087Z,0.30
2018-10-01T12:07:32.097Z,0.20
2018-10-01T12:08:31.987Z,0.50
2018-10-01T12:09:32.026Z,0.50
2018-10-01T12:10:31.951Z,0.30
2018-10-01T12:11:31.827Z,0.40
2018-10-01T12:12:31.902Z,0.30
2018-10-01T12:13:31.722Z,0.30
2018-10-01T12:14:31.666Z,0.40
2018-10-01T12:15:31.657Z,0.30
2018-10-01T12:16:31.561Z,0.40
2018-10-01T12:17:31.515Z,0.50
2018-10-01T12:18:31.487Z,0.40
2018-10-01T12:19:31.428Z,0.30
2018-10-01T12:20:31.354Z,0.30
2018-10-01T12:21:31.374Z,0.40
2018-10-01T12:22:31.251Z,0.30
2018-10-01T12:23:31.222Z,0.30
2018-10-01T12:24:31.145Z,0.40
2018-10-01T12:25:31.099Z,0.30
2018-10-01T12:26:31.044Z,0.40
2018-10-01T12:27:31.020Z,0.30
2018-10-01T12:28:30.960Z,0.30
2018-10-01T12:29:30.890Z,0.50
2018-10-01T12:30:30.837Z,0.40
2018-10-01T12:31:30.780Z,0.30
2018-10-01T12:32:30.724Z,0.30
2018-10-01T12:33:30.732Z,0.40
2018-10-01T12:34:30.625Z,0.40
2018-10-01T12:35:30.576Z,0.50
2018-10-01T12:36:30.520Z,0.50
2018-10-01T12:37:30.469Z,0.40
2018-10-01T12:38:30.444Z,0.40
2018-10-01T12:39:30.367Z,0.60
2018-10-01T12:40:30.310Z,0.50
2018-10-01T12:41:30.259Z,0.60
2018-10-01T12:42:30.205Z,1.00
2018-10-01T12:43:30.185Z,0.60
2018-10-01T12:44:30.099Z,0.60
2018-10-01T12:45:30.077Z,0.60
2018-10-01T12:46:30.001Z,0.50
2018-10-01T12:47:29.945Z,0.70
2018-10-01T12:48:29.914Z,0.60
2018-10-01T12:49:29.843Z,0.60
2018-10-01T12:50:29.858Z,0.60
2018-10-01T12:51:29.751Z,0.70
2018-10-01T12:52:29.688Z,0.70
2018-10-01T12:53:29.659Z,0.70
2018-10-01T12:54:29.578Z,0.60
2018-10-01T12:55:29.533Z,0.80
2018-10-01T12:56:29.479Z,0.50
2018-10-01T12:57:29.480Z,0.70
2018-10-01T12:58:29.396Z,0.50
2018-10-01T12:59:29.421Z,0.90
2018-10-01T13:00:29.268Z,0.60
2018-10-01T13:01:29.233Z,0.70
2018-10-01T13:02:29.163Z,0.70
2018-10-01T13:03:29.139Z,0.90
2018-10-01T13:04:29.062Z,0.80
2018-10-01T13:05:29.009Z,0.70
2018-10-01T13:06:29.038Z,1.00
2018-10-01T13:07:28.904Z,0.70
2018-10-01T13:08:28.878Z,0.70
2018-10-01T13:09:28.802Z,0.80
2018-10-01T13:10:28.747Z,0.90
2018-10-01T13:11:28.702Z,0.70
2018-10-01T13:12:28.716Z,0.80
2018-10-01T13:13:28.617Z,0.90
2018-10-01T13:14:28.542Z,0.80
2018-10-01T13:15:28.487Z,1.00
2018-10-01T13:16:28.440Z,0.90
2018-10-01T13:17:28.386Z,0.80